Borult égbolt gyenge esőzésekkel
Változó égbolt záporokkal
Részlegesen felhős égbolt fátyolfelhőkkel
Tiszta égbolt néhány alacsony és fátyolfelhővel
Változó égbolt záporokkal
Borult égbolt gyenge esőzésekkel
Részlegesen felhős égbolt fátyolfelhőkkel
Részlegesen felhős égbolt fátyolfelhőkkel
Részlegesen felhős égbolt fátyolfelhőkkel
(°C)
16°
16°
16°
16°
15°
15°
15°
15°
15°
15°
14°
14°
14°
14°
14°
14°
15°
15°
(°C)
15°
14°
14°
14°
14°
13°
13°
14°
15°
ÉK
ÉK
KÉK
K
K
KÉK
ÉK
ÉK
KÉK
(km/h)
16-34
15-32
15-30
14-29
13-29
12-29
12-27
11-26
10-26
(mm)
0.3
0
0
0
0.1
0.1
0
0
0
(%)
65
65
7
8
35
35
26
1
0

Napfelkelte

/
sun-icon
UV 4
04:00
23:14
Hold (első negyed) (96°)
15:33
00:04

METAR Møre og Romsdal fylke (ENML)-ért

Idő Feltételek Hőmérséklet/
Harmatpont
Szél Látási viszonyok Időjárás Felhők Légnyomás Módosítás Nyers
VFR 17°C / 16°C 50º 5kt 9700m Light Showers Rain 3.00mm precipitation Few Clouds 700ft
Broken Clouds 7000ft
1007 - ENML 141850Z 05005KT 9999 -SHRA FEW007 BKN070 17/16 Q1007
VFR 17°C / 16°C 50º variable 350º to 070º 6kt 9700m Light Rain 1.00mm precipitation Few Clouds 1000ft
Broken Clouds 8000ft
1007 - ENML 141820Z 05006KT 350V070 9999 -RA FEW010 BKN080 17/16 Q1007
VFR 17°C / 15°C 10º 6kt 9700m Light Rain 1.00mm precipitation Few Clouds 1000ft
Broken Clouds 5200ft
1007 - ENML 141750Z 01006KT 9999 -RA FEW010 BKN052 17/15 Q1007
VFR 17°C / 15°C 20º 7kt 9700m Light Rain 1.00mm precipitation Few Clouds 700ft
Broken Clouds 5000ft
1008 - ENML 141720Z 02007KT 9999 -RA FEW007 BKN050 17/15 Q1008
VFR 18°C / 16°C 50º 6kt 9700m Light Rain 1.00mm precipitation Few Clouds 700ft
Scattered Clouds 7000ft
Broken Clouds 15000ft
1008 - ENML 141650Z 05006KT 9999 -RA FEW007 SCT070 BKN150 18/16 Q1008
VFR 19°C / 15°C 80º 4kt 9700m Light Rain 1.00mm precipitation Few Clouds 600ft
Broken Clouds 8000ft
1007 - ENML 141620Z 08004KT 9999 -RA FEW006 BKN080 19/15 Q1007
VFR 19°C / 16°C 80º 3kt 9700m Light Rain 1.00mm precipitation Few Clouds 500ft
Broken Clouds 5200ft
1008 - ENML 141550Z 08003KT 9999 -RA FEW005 BKN052 19/16 Q1008
VFR 19°C / 16°C 2kt 9700m - Few Clouds 500ft
Broken Clouds 9000ft
1008 - ENML 141520Z VRB02KT 9999 FEW005 BKN090 19/16 Q1008
VFR 19°C / 15°C 210º 6kt 9700m - Few Clouds 500ft
Broken Clouds 10000ft
1007 - ENML 141450Z 21006KT 9999 FEW005 BKN100 19/15 Q1007
VFR 20°C / 15°C 210º 5kt 9700m - Few Clouds 4500ft
Broken Clouds 17000ft
1007 - ENML 141420Z 21005KT 9999 FEW045 BKN170 20/15 Q1007
VFR 20°C / 14°C 190º 5kt 9700m - Few Clouds 5000ft
Broken Clouds 17000ft
1007 - ENML 141350Z 19005KT 9999 FEW050 BKN170 20/14 Q1007
VFR 20°C / 15°C 190º 7kt 9700m - Few Clouds 5000ft
Broken Clouds 17000ft
1008 - ENML 141320Z 19007KT 9999 FEW050 BKN170 20/15 Q1008
VFR 19°C / 14°C 190º 5kt 9700m - Few Clouds 5000ft
Broken Clouds 17000ft
1008 - ENML 141250Z 19005KT 9999 FEW050 BKN170 19/14 Q1008
VFR 19°C / 15°C 210º 5kt 9700m - Few Clouds 600ft
Broken Clouds 20000ft
1008 - ENML 141220Z 21005KT 9999 FEW006 BKN200 19/15 Q1008
VFR 18°C / 14°C 200º 5kt 9700m - Few Clouds 600ft
Scattered Clouds 18000ft
1008 - ENML 141150Z 20005KT 9999 FEW006 SCT180 18/14 Q1008
VFR 18°C / 14°C 210º 6kt 9700m - Few Clouds 6000ft
Scattered Clouds 18000ft
1009 - ENML 141120Z 21006KT 9999 FEW060 SCT180 18/14 Q1009
VFR 18°C / 14°C 210º 8kt 9700m - Few Clouds 500ft
Scattered Clouds 20000ft
1009 - ENML 141050Z 21008KT 9999 FEW005 SCT200 18/14 Q1009
VFR 18°C / 14°C 220º 8kt 9700m - Few Clouds 500ft
Scattered Clouds 20000ft
1009 - ENML 141020Z 22008KT 9999 FEW005 SCT200 18/14 Q1009
VFR 19°C / 15°C 220º 8kt 9700m - Few Clouds 500ft
Scattered Clouds 20000ft
1009 - ENML 140950Z 22008KT 9999 FEW005 SCT200 19/15 Q1009
VFR 17°C / 14°C 220º 8kt 9700m - Few Clouds 500ft
Scattered Clouds 20000ft
1009 - ENML 140920Z 22008KT 9999 FEW005 SCT200 17/14 Q1009
18°C / 14°C 200º 5kt - Clear 1010 - ENML 140850Z AUTO 20005KT 9999NDV NCD 18/14 Q1010
19°C / 14°C 200º 4kt - Few Clouds 22000ft 1010 - ENML 140820Z AUTO 20004KT 9999NDV FEW220/// 19/14 Q1010
17°C / 13°C 200º variable 160º to 240º 3kt - Clear 1010 - ENML 140750Z AUTO 20003KT 160V240 9999NDV NCD 17/13 Q1010
17°C / 13°C 2kt - Clear 1011 - ENML 140720Z AUTO VRB02KT 9999NDV NCD 17/13 Q1011

VFR

17°C / 16°C

[Több]
Szél 50º 5kt
Látási viszonyok 9700m
Időjárás Light Showers Rain 3.00mm precipitation
Felhők Few Clouds 700ft
Broken Clouds 7000ft
Légnyomás 1007
Módosítás -
Nyers ENML 141850Z 05005KT 9999 -SHRA FEW007 BKN070 17/16 Q1007

VFR

17°C / 16°C

[Több]
Szél 50º variable 350º to 070º 6kt
Látási viszonyok 9700m
Időjárás Light Rain 1.00mm precipitation
Felhők Few Clouds 1000ft
Broken Clouds 8000ft
Légnyomás 1007
Módosítás -
Nyers ENML 141820Z 05006KT 350V070 9999 -RA FEW010 BKN080 17/16 Q1007

VFR

17°C / 15°C

[Több]
Szél 10º 6kt
Látási viszonyok 9700m
Időjárás Light Rain 1.00mm precipitation
Felhők Few Clouds 1000ft
Broken Clouds 5200ft
Légnyomás 1007
Módosítás -
Nyers ENML 141750Z 01006KT 9999 -RA FEW010 BKN052 17/15 Q1007

VFR

17°C / 15°C

[Több]
Szél 20º 7kt
Látási viszonyok 9700m
Időjárás Light Rain 1.00mm precipitation
Felhők Few Clouds 700ft
Broken Clouds 5000ft
Légnyomás 1008
Módosítás -
Nyers ENML 141720Z 02007KT 9999 -RA FEW007 BKN050 17/15 Q1008

VFR

18°C / 16°C

[Több]
Szél 50º 6kt
Látási viszonyok 9700m
Időjárás Light Rain 1.00mm precipitation
Felhők Few Clouds 700ft
Scattered Clouds 7000ft
Broken Clouds 15000ft
Légnyomás 1008
Módosítás -
Nyers ENML 141650Z 05006KT 9999 -RA FEW007 SCT070 BKN150 18/16 Q1008

VFR

19°C / 15°C

[Több]
Szél 80º 4kt
Látási viszonyok 9700m
Időjárás Light Rain 1.00mm precipitation
Felhők Few Clouds 600ft
Broken Clouds 8000ft
Légnyomás 1007
Módosítás -
Nyers ENML 141620Z 08004KT 9999 -RA FEW006 BKN080 19/15 Q1007

VFR

19°C / 16°C

[Több]
Szél 80º 3kt
Látási viszonyok 9700m
Időjárás Light Rain 1.00mm precipitation
Felhők Few Clouds 500ft
Broken Clouds 5200ft
Légnyomás 1008
Módosítás -
Nyers ENML 141550Z 08003KT 9999 -RA FEW005 BKN052 19/16 Q1008

VFR

19°C / 16°C

[Több]
Szél 2kt
Látási viszonyok 9700m
Időjárás -
Felhők Few Clouds 500ft
Broken Clouds 9000ft
Légnyomás 1008
Módosítás -
Nyers ENML 141520Z VRB02KT 9999 FEW005 BKN090 19/16 Q1008

VFR

19°C / 15°C

[Több]
Szél 210º 6kt
Látási viszonyok 9700m
Időjárás -
Felhők Few Clouds 500ft
Broken Clouds 10000ft
Légnyomás 1007
Módosítás -
Nyers ENML 141450Z 21006KT 9999 FEW005 BKN100 19/15 Q1007

VFR

20°C / 15°C

[Több]
Szél 210º 5kt
Látási viszonyok 9700m
Időjárás -
Felhők Few Clouds 4500ft
Broken Clouds 17000ft
Légnyomás 1007
Módosítás -
Nyers ENML 141420Z 21005KT 9999 FEW045 BKN170 20/15 Q1007

VFR

20°C / 14°C

[Több]
Szél 190º 5kt
Látási viszonyok 9700m
Időjárás -
Felhők Few Clouds 5000ft
Broken Clouds 17000ft
Légnyomás 1007
Módosítás -
Nyers ENML 141350Z 19005KT 9999 FEW050 BKN170 20/14 Q1007

VFR

20°C / 15°C

[Több]
Szél 190º 7kt
Látási viszonyok 9700m
Időjárás -
Felhők Few Clouds 5000ft
Broken Clouds 17000ft
Légnyomás 1008
Módosítás -
Nyers ENML 141320Z 19007KT 9999 FEW050 BKN170 20/15 Q1008

VFR

19°C / 14°C

[Több]
Szél 190º 5kt
Látási viszonyok 9700m
Időjárás -
Felhők Few Clouds 5000ft
Broken Clouds 17000ft
Légnyomás 1008
Módosítás -
Nyers ENML 141250Z 19005KT 9999 FEW050 BKN170 19/14 Q1008

VFR

19°C / 15°C

[Több]
Szél 210º 5kt
Látási viszonyok 9700m
Időjárás -
Felhők Few Clouds 600ft
Broken Clouds 20000ft
Légnyomás 1008
Módosítás -
Nyers ENML 141220Z 21005KT 9999 FEW006 BKN200 19/15 Q1008

VFR

18°C / 14°C

[Több]
Szél 200º 5kt
Látási viszonyok 9700m
Időjárás -
Felhők Few Clouds 600ft
Scattered Clouds 18000ft
Légnyomás 1008
Módosítás -
Nyers ENML 141150Z 20005KT 9999 FEW006 SCT180 18/14 Q1008

VFR

18°C / 14°C

[Több]
Szél 210º 6kt
Látási viszonyok 9700m
Időjárás -
Felhők Few Clouds 6000ft
Scattered Clouds 18000ft
Légnyomás 1009
Módosítás -
Nyers ENML 141120Z 21006KT 9999 FEW060 SCT180 18/14 Q1009

VFR

18°C / 14°C

[Több]
Szél 210º 8kt
Látási viszonyok 9700m
Időjárás -
Felhők Few Clouds 500ft
Scattered Clouds 20000ft
Légnyomás 1009
Módosítás -
Nyers ENML 141050Z 21008KT 9999 FEW005 SCT200 18/14 Q1009

VFR

18°C / 14°C

[Több]
Szél 220º 8kt
Látási viszonyok 9700m
Időjárás -
Felhők Few Clouds 500ft
Scattered Clouds 20000ft
Légnyomás 1009
Módosítás -
Nyers ENML 141020Z 22008KT 9999 FEW005 SCT200 18/14 Q1009

VFR

19°C / 15°C

[Több]
Szél 220º 8kt
Látási viszonyok 9700m
Időjárás -
Felhők Few Clouds 500ft
Scattered Clouds 20000ft
Légnyomás 1009
Módosítás -
Nyers ENML 140950Z 22008KT 9999 FEW005 SCT200 19/15 Q1009

VFR

17°C / 14°C

[Több]
Szél 220º 8kt
Látási viszonyok 9700m
Időjárás -
Felhők Few Clouds 500ft
Scattered Clouds 20000ft
Légnyomás 1009
Módosítás -
Nyers ENML 140920Z 22008KT 9999 FEW005 SCT200 17/14 Q1009

18°C / 14°C

[Több]
Szél 200º 5kt
Látási viszonyok
Időjárás -
Felhők Clear
Légnyomás 1010
Módosítás -
Nyers ENML 140850Z AUTO 20005KT 9999NDV NCD 18/14 Q1010

19°C / 14°C

[Több]
Szél 200º 4kt
Látási viszonyok
Időjárás -
Felhők Few Clouds 22000ft
Légnyomás 1010
Módosítás -
Nyers ENML 140820Z AUTO 20004KT 9999NDV FEW220/// 19/14 Q1010

17°C / 13°C

[Több]
Szél 200º variable 160º to 240º 3kt
Látási viszonyok
Időjárás -
Felhők Clear
Légnyomás 1010
Módosítás -
Nyers ENML 140750Z AUTO 20003KT 160V240 9999NDV NCD 17/13 Q1010

17°C / 13°C

[Több]
Szél 2kt
Látási viszonyok
Időjárás -
Felhők Clear
Légnyomás 1011
Módosítás -
Nyers ENML 140720Z AUTO VRB02KT 9999NDV NCD 17/13 Q1011

TAF Møre og Romsdal fylke (ENML)-ért

From till


From till Wind 100º 8kt. Visibility 9700m. Few Clouds 3000ft. Scattered Clouds 8000ft.
Temporarly from till Showers Rain . Scattered Clouds 2000ft. Broken Clouds 5000ft.

Nyers: TAF ENML 141400Z 1415/1423 10008KT 9999 FEW030 SCT080 TEMPO 1416/1421 SHRA SCT020 BKN050CB

rainNOW: Eső előrejelzés Møre og Romsdal fylke és környéke (25km-es körzetben)

0.1 mm
0.0 mm
0.0 mm
0.1 mm
0.1 mm
0.1 mm
0.1 mm
0.0 mm
0.0 mm
0.0 mm
0.0 mm
0.0 mm

Radarkép ehhez: Møre og Romsdal fylke

Szitáló eső
Enyhe
Mérsékelt
Erős
Nagyon heves
Jégeső

A helyzetjelző helye: Møre og Romsdal fylke. A narancssárga keresztek villámlást jeleznek. Az adatokat nowcast.de szolgáltatta (elérhető az USA-ban, Európában és Ausztráliában). A szitáló eső vagy enyhe hóesés láthatatlan lehet a radar számára. A csapadék intenzitása színkóddal van jelölve, a türkizkéktől a pirosig.

Aktuális műholdas és esőképek ezen a helyen: Møre og Romsdal fylke, Norvégia

A helyszín jelölő a következő helyen van elhelyezve: Møre og Romsdal fylke. [Több]

A valós idejű műholdas kép ötvözi a nappali látható fényt az éjszakai infravörös sugárzással. Éjjel a kép nem sötét, mivel az infravörös sugárzás képes érzékelni a hőmérséklet-különbségeket. Sajnos az alacsony felhőket és a ködöt nehéz megkülönböztetni a talaj hőmérsékletétől, így az éjszaka folyamán szinte láthatatlanok lehetnek. A Meteosat európai műholdképei valós időben frissülnek minden 5 percben. A GOES-16/GOES-17 (Észak- és Dél-Amerika) és Himawari (Ázsia) képei 10 percenként frissülnek.

A csapadékmennyiséget radar és műholdak alapján becsülik. A műholdakról származó csapadékbecslések éjszaka kevésbé pontosak, mint nappal.

© 2024 meteoblue, NOAA Satellites GOES-16 and EUMETSAT. nowcast által biztosított villámlással kapcsolatos adatok.

Vissza a tetejére
×
Szia,
úgy tűnik, hogy reklámblokkolót használsz.

A reklámozás elengedhetetlen ahhoz, hogy ingyenes honlapunkat egyedülálló részletességgel és pontossággal tartsuk fenn.

Kérjük, vegye fel a www.meteoblue.com fehérlistára a reklámblokkolóján, vagy fontolja meg valamelyik termékünk megvásárlását:

Már rendelkezik előfizetéssel?
Akkor kérjük, jelentkezzen be.